sensor_id;sensor_type;location;lat;lon;timestamp;pressure;altitude;pressure_sealevel;temperature;humidity
59831;BME280;45711;50.108;13.712;2023-01-20T00:00:03;97094.94;;;-2.39;87.03
59831;BME280;45711;50.108;13.712;2023-01-20T00:02:28;97095.81;;;-2.27;86.81
59831;BME280;45711;50.108;13.712;2023-01-20T00:04:56;97096.66;;;-2.51;86.71
59831;BME280;45711;50.108;13.712;2023-01-20T00:07:22;97094.94;;;-2.39;86.63
59831;BME280;45711;50.108;13.712;2023-01-20T00:09:47;97098.81;;;-2.23;86.31
59831;BME280;45711;50.108;13.712;2023-01-20T00:12:13;97099.56;;;-2.16;86.01
59831;BME280;45711;50.108;13.712;2023-01-20T00:14:38;97103.22;;;-2.17;85.72
59831;BME280;45711;50.108;13.712;2023-01-20T00:17:04;97112.03;;;-2.12;86.59
59831;BME280;45711;50.108;13.712;2023-01-20T00:19:30;97112.25;;;-2.13;86.10
59831;BME280;45711;50.108;13.712;2023-01-20T00:21:57;97112.53;;;-2.21;86.28
59831;BME280;45711;50.108;13.712;2023-01-20T00:24:22;97108.47;;;-2.42;86.77
59831;BME280;45711;50.108;13.712;2023-01-20T00:26:48;97119.25;;;-2.32;87.70
59831;BME280;45711;50.108;13.712;2023-01-20T00:29:14;97117.59;;;-2.27;87.15
59831;BME280;45711;50.108;13.712;2023-01-20T00:31:39;97125.91;;;-2.30;86.93
59831;BME280;45711;50.108;13.712;2023-01-20T00:34:05;97128.72;;;-2.31;87.43
59831;BME280;45711;50.108;13.712;2023-01-20T00:36:31;97135.75;;;-2.25;87.30
59831;BME280;45711;50.108;13.712;2023-01-20T00:39:00;97136.03;;;-2.40;88.21
59831;BME280;45711;50.108;13.712;2023-01-20T00:41:26;97137.22;;;-2.36;87.56
59831;BME280;45711;50.108;13.712;2023-01-20T00:43:52;97134.72;;;-2.24;87.62
59831;BME280;45711;50.108;13.712;2023-01-20T00:46:18;97137.06;;;-2.41;87.72
59831;BME280;45711;50.108;13.712;2023-01-20T00:48:43;97145.31;;;-2.37;88.64
59831;BME280;45711;50.108;13.712;2023-01-20T00:51:09;97151.31;;;-2.30;88.19
59831;BME280;45711;50.108;13.712;2023-01-20T00:53:35;97147.06;;;-2.31;88.82
59831;BME280;45711;50.108;13.712;2023-01-20T00:56:03;97149.69;;;-2.31;88.67
59831;BME280;45711;50.108;13.712;2023-01-20T00:58:29;97162.91;;;-2.19;88.49
59831;BME280;45711;50.108;13.712;2023-01-20T01:00:54;97158.34;;;-2.06;88.38
59831;BME280;45711;50.108;13.712;2023-01-20T01:03:21;97163.38;;;-2.04;87.93
59831;BME280;45711;50.108;13.712;2023-01-20T01:05:47;97169.69;;;-2.12;87.53
59831;BME280;45711;50.108;13.712;2023-01-20T01:08:13;97165.41;;;-2.31;88.30
59831;BME280;45711;50.108;13.712;2023-01-20T01:10:39;97165.06;;;-2.35;88.62
59831;BME280;45711;50.108;13.712;2023-01-20T01:13:09;97167.88;;;-2.36;88.84
59831;BME280;45711;50.108;13.712;2023-01-20T01:15:35;97178.97;;;-2.34;88.49
59831;BME280;45711;50.108;13.712;2023-01-20T01:18:01;97186.75;;;-2.28;89.13
59831;BME280;45711;50.108;13.712;2023-01-20T01:20:27;97188.28;;;-2.13;88.15
59831;BME280;45711;50.108;13.712;2023-01-20T01:22:53;97187.53;;;-2.02;86.75
59831;BME280;45711;50.108;13.712;2023-01-20T01:25:19;97192.53;;;-1.94;86.86
59831;BME280;45711;50.108;13.712;2023-01-20T01:27:44;97195.72;;;-1.92;86.11
59831;BME280;45711;50.108;13.712;2023-01-20T01:30:14;97192.91;;;-1.90;86.05
59831;BME280;45711;50.108;13.712;2023-01-20T01:32:41;97198.59;;;-1.75;86.28
59831;BME280;45711;50.108;13.712;2023-01-20T01:35:07;97193.13;;;-1.73;86.33
59831;BME280;45711;50.108;13.712;2023-01-20T01:37:33;97182.41;;;-1.90;86.08
59831;BME280;45711;50.108;13.712;2023-01-20T01:39:58;97179.75;;;-2.09;87.07
59831;BME280;45711;50.108;13.712;2023-01-20T01:42:25;97179.38;;;-2.12;88.09
59831;BME280;45711;50.108;13.712;2023-01-20T01:45:27;97185.28;;;-2.17;88.27
59831;BME280;45711;50.108;13.712;2023-01-20T01:47:58;97185.00;;;-2.34;88.52
59831;BME280;45711;50.108;13.712;2023-01-20T01:50:27;97168.09;;;-2.38;89.42
59831;BME280;45711;50.108;13.712;2023-01-20T01:52:55;97173.50;;;-2.33;89.07
59831;BME280;45711;50.108;13.712;2023-01-20T01:55:24;97162.63;;;-2.36;88.81
59831;BME280;45711;50.108;13.712;2023-01-20T01:57:52;97170.81;;;-2.51;89.46
59831;BME280;45711;50.108;13.712;2023-01-20T02:00:19;97169.88;;;-2.57;88.93
59831;BME280;45711;50.108;13.712;2023-01-20T02:02:46;97174.59;;;-2.72;89.83
59831;BME280;45711;50.108;13.712;2023-01-20T02:05:13;97180.13;;;-2.87;89.82
59831;BME280;45711;50.108;13.712;2023-01-20T02:07:42;97168.41;;;-2.84;89.56
59831;BME280;45711;50.108;13.712;2023-01-20T02:10:09;97174.44;;;-2.84;89.96
59831;BME280;45711;50.108;13.712;2023-01-20T02:12:35;97170.41;;;-2.80;89.99
59831;BME280;45711;50.108;13.712;2023-01-20T02:15:01;97179.44;;;-2.75;90.01
59831;BME280;45711;50.108;13.712;2023-01-20T02:17:30;97174.19;;;-2.75;89.83
59831;BME280;45711;50.108;13.712;2023-01-20T02:20:23;97178.88;;;-2.78;89.01
59831;BME280;45711;50.108;13.712;2023-01-20T02:22:57;97182.22;;;-2.70;89.37
59831;BME280;45711;50.108;13.712;2023-01-20T02:25:55;97184.69;;;-2.75;89.49
59831;BME280;45711;50.108;13.712;2023-01-20T02:31:54;97189.81;;;-2.87;89.85
59831;BME280;45711;50.108;13.712;2023-01-20T02:34:29;97183.66;;;-2.74;89.69
59831;BME280;45711;50.108;13.712;2023-01-20T02:37:01;97189.50;;;-2.72;89.70
59831;BME280;45711;50.108;13.712;2023-01-20T02:39:33;97196.06;;;-2.57;89.30
59831;BME280;45711;50.108;13.712;2023-01-20T02:42:07;97196.25;;;-2.58;88.63
59831;BME280;45711;50.108;13.712;2023-01-20T02:44:38;97193.38;;;-2.50;89.07
59831;BME280;45711;50.108;13.712;2023-01-20T02:47:12;97202.00;;;-2.74;89.76
59831;BME280;45711;50.108;13.712;2023-01-20T02:49:39;97206.69;;;-2.83;90.10
59831;BME280;45711;50.108;13.712;2023-01-20T02:52:11;97204.97;;;-2.64;90.51
59831;BME280;45711;50.108;13.712;2023-01-20T02:54:41;97210.78;;;-2.62;89.50
59831;BME280;45711;50.108;13.712;2023-01-20T02:57:11;97212.66;;;-2.69;90.17
59831;BME280;45711;50.108;13.712;2023-01-20T02:59:42;97205.44;;;-2.74;90.57
59831;BME280;45711;50.108;13.712;2023-01-20T03:02:14;97206.81;;;-2.71;90.75
59831;BME280;45711;50.108;13.712;2023-01-20T03:04:43;97210.94;;;-2.57;90.65
59831;BME280;45711;50.108;13.712;2023-01-20T03:07:12;97204.47;;;-2.48;90.38
59831;BME280;45711;50.108;13.712;2023-01-20T03:09:42;97207.34;;;-2.31;89.52
59831;BME280;45711;50.108;13.712;2023-01-20T03:12:12;97209.50;;;-2.21;89.06
59831;BME280;45711;50.108;13.712;2023-01-20T03:14:39;97204.88;;;-2.51;89.39
59831;BME280;45711;50.108;13.712;2023-01-20T03:17:05;97213.38;;;-2.56;90.36
59831;BME280;45711;50.108;13.712;2023-01-20T03:19:32;97214.34;;;-2.50;90.16
59831;BME280;45711;50.108;13.712;2023-01-20T03:21:58;97220.13;;;-2.41;89.87
59831;BME280;45711;50.108;13.712;2023-01-20T03:24:25;97222.09;;;-2.37;89.44
59831;BME280;45711;50.108;13.712;2023-01-20T03:26:53;97222.44;;;-2.27;88.14
59831;BME280;45711;50.108;13.712;2023-01-20T03:29:22;97232.06;;;-2.20;87.71
59831;BME280;45711;50.108;13.712;2023-01-20T03:31:49;97222.78;;;-2.16;87.55
59831;BME280;45711;50.108;13.712;2023-01-20T03:34:18;97230.16;;;-2.07;86.81
59831;BME280;45711;50.108;13.712;2023-01-20T03:36:47;97239.03;;;-2.08;86.42
59831;BME280;45711;50.108;13.712;2023-01-20T03:39:13;97249.53;;;-2.08;87.22
59831;BME280;45711;50.108;13.712;2023-01-20T03:41:50;97242.47;;;-2.07;87.46
59831;BME280;45711;50.108;13.712;2023-01-20T03:44:21;97253.47;;;-1.98;88.66
59831;BME280;45711;50.108;13.712;2023-01-20T03:46:51;97253.63;;;-2.18;88.90
59831;BME280;45711;50.108;13.712;2023-01-20T03:49:25;97248.63;;;-2.27;89.97
59831;BME280;45711;50.108;13.712;2023-01-20T03:51:59;97254.41;;;-2.18;88.77
59831;BME280;45711;50.108;13.712;2023-01-20T03:54:33;97259.56;;;-2.30;89.60
59831;BME280;45711;50.108;13.712;2023-01-20T03:57:05;97253.97;;;-2.40;89.59
59831;BME280;45711;50.108;13.712;2023-01-20T03:59:34;97254.47;;;-2.24;89.69
59831;BME280;45711;50.108;13.712;2023-01-20T04:02:04;97262.41;;;-1.81;91.13
59831;BME280;45711;50.108;13.712;2023-01-20T04:04:32;97255.25;;;-2.17;87.80
59831;BME280;45711;50.108;13.712;2023-01-20T04:07:02;97260.53;;;-2.24;88.25
59831;BME280;45711;50.108;13.712;2023-01-20T04:09:31;97263.94;;;-2.23;88.47
59831;BME280;45711;50.108;13.712;2023-01-20T04:11:59;97265.72;;;-2.17;88.72
59831;BME280;45711;50.108;13.712;2023-01-20T04:14:24;97270.22;;;-2.24;87.44
59831;BME280;45711;50.108;13.712;2023-01-20T04:16:52;97264.72;;;-2.16;87.54
59831;BME280;45711;50.108;13.712;2023-01-20T04:19:19;97268.84;;;-2.02;87.73
59831;BME280;45711;50.108;13.712;2023-01-20T04:21:48;97268.72;;;-2.14;87.61
59831;BME280;45711;50.108;13.712;2023-01-20T04:24:21;97273.84;;;-2.25;87.15
59831;BME280;45711;50.108;13.712;2023-01-20T04:26:50;97285.03;;;-2.12;88.36
59831;BME280;45711;50.108;13.712;2023-01-20T04:29:15;97288.97;;;-2.28;87.46
59831;BME280;45711;50.108;13.712;2023-01-20T04:31:41;97283.31;;;-2.24;87.90
59831;BME280;45711;50.108;13.712;2023-01-20T04:34:11;97297.50;;;-2.07;86.91
59831;BME280;45711;50.108;13.712;2023-01-20T04:36:39;97296.56;;;-2.13;87.49
59831;BME280;45711;50.108;13.712;2023-01-20T04:39:05;97291.13;;;-2.18;88.13
59831;BME280;45711;50.108;13.712;2023-01-20T04:41:32;97302.28;;;-1.97;86.94
59831;BME280;45711;50.108;13.712;2023-01-20T04:43:58;97305.69;;;-1.97;86.84
59831;BME280;45711;50.108;13.712;2023-01-20T04:46:23;97303.13;;;-2.04;86.95
59831;BME280;45711;50.108;13.712;2023-01-20T04:48:49;97308.13;;;-1.95;86.84
59831;BME280;45711;50.108;13.712;2023-01-20T04:51:17;97310.53;;;-1.94;86.49
59831;BME280;45711;50.108;13.712;2023-01-20T04:53:43;97319.97;;;-1.86;85.93
59831;BME280;45711;50.108;13.712;2023-01-20T04:56:11;97317.44;;;-1.99;87.09
59831;BME280;45711;50.108;13.712;2023-01-20T04:58:39;97318.72;;;-1.84;86.90
59831;BME280;45711;50.108;13.712;2023-01-20T05:03:57;97319.81;;;-1.91;86.18
59831;BME280;45711;50.108;13.712;2023-01-20T05:06:23;97322.97;;;-1.83;86.03
59831;BME280;45711;50.108;13.712;2023-01-20T05:08:48;97316.47;;;-1.80;86.34
59831;BME280;45711;50.108;13.712;2023-01-20T05:11:14;97324.19;;;-1.85;86.24
59831;BME280;45711;50.108;13.712;2023-01-20T05:13:41;97321.88;;;-2.00;87.01
59831;BME280;45711;50.108;13.712;2023-01-20T05:16:10;97319.03;;;-1.98;87.06
59831;BME280;45711;50.108;13.712;2023-01-20T05:18:36;97333.25;;;-1.88;87.06
59831;BME280;45711;50.108;13.712;2023-01-20T05:21:02;97336.88;;;-1.82;87.10
59831;BME280;45711;50.108;13.712;2023-01-20T05:23:28;97325.94;;;-1.79;86.22
59831;BME280;45711;50.108;13.712;2023-01-20T05:25:54;97330.13;;;-1.71;86.26
59831;BME280;45711;50.108;13.712;2023-01-20T05:28:19;97326.53;;;-1.52;87.67
59831;BME280;45711;50.108;13.712;2023-01-20T05:30:49;97335.88;;;-1.56;86.76
59831;BME280;45711;50.108;13.712;2023-01-20T05:33:15;97342.34;;;-1.59;85.85
59831;BME280;45711;50.108;13.712;2023-01-20T05:35:40;97348.44;;;-1.65;85.97
59831;BME280;45711;50.108;13.712;2023-01-20T05:38:06;97352.06;;;-1.66;85.86
59831;BME280;45711;50.108;13.712;2023-01-20T05:40:32;97346.41;;;-1.63;86.22
59831;BME280;45711;50.108;13.712;2023-01-20T05:43:01;97350.63;;;-1.62;86.03
59831;BME280;45711;50.108;13.712;2023-01-20T05:45:27;97345.44;;;-1.68;87.34
59831;BME280;45711;50.108;13.712;2023-01-20T05:47:58;97346.41;;;-1.63;86.97
59831;BME280;45711;50.108;13.712;2023-01-20T05:50:25;97355.59;;;-1.54;86.49
59831;BME280;45711;50.108;13.712;2023-01-20T05:52:52;97354.31;;;-1.44;86.28
59831;BME280;45711;50.108;13.712;2023-01-20T05:55:18;97345.91;;;-1.53;86.93
59831;BME280;45711;50.108;13.712;2023-01-20T05:57:44;97352.44;;;-1.62;87.93
59831;BME280;45711;50.108;13.712;2023-01-20T06:00:13;97357.69;;;-1.62;88.25
59831;BME280;45711;50.108;13.712;2023-01-20T06:02:39;97355.69;;;-1.60;87.67
59831;BME280;45711;50.108;13.712;2023-01-20T06:05:09;97354.44;;;-1.58;87.81
59831;BME280;45711;50.108;13.712;2023-01-20T06:07:38;97357.69;;;-1.62;87.80
59831;BME280;45711;50.108;13.712;2023-01-20T06:10:04;97358.31;;;-1.60;88.66
59831;BME280;45711;50.108;13.712;2023-01-20T06:12:30;97368.34;;;-1.57;87.39
59831;BME280;45711;50.108;13.712;2023-01-20T06:14:55;97371.34;;;-1.54;86.87
59831;BME280;45711;50.108;13.712;2023-01-20T06:17:21;97360.84;;;-1.54;87.09
59831;BME280;45711;50.108;13.712;2023-01-20T06:19:50;97366.47;;;-1.50;87.27
59831;BME280;45711;50.108;13.712;2023-01-20T06:22:20;97366.09;;;-1.54;88.11
59831;BME280;45711;50.108;13.712;2023-01-20T06:24:46;97370.78;;;-1.56;88.00
59831;BME280;45711;50.108;13.712;2023-01-20T06:27:11;97374.63;;;-1.58;88.32
59831;BME280;45711;50.108;13.712;2023-01-20T06:29:39;97371.94;;;-1.77;88.69
59831;BME280;45711;50.108;13.712;2023-01-20T06:32:05;97380.72;;;-1.64;88.44
59831;BME280;45711;50.108;13.712;2023-01-20T06:34:34;97383.13;;;-1.63;88.90
59831;BME280;45711;50.108;13.712;2023-01-20T06:37:09;97386.13;;;-1.59;89.17
59831;BME280;45711;50.108;13.712;2023-01-20T06:39:40;97395.63;;;-1.58;88.69
59831;BME280;45711;50.108;13.712;2023-01-20T06:42:06;97400.84;;;-1.58;89.40
59831;BME280;45711;50.108;13.712;2023-01-20T06:44:39;97397.28;;;-1.64;89.37
59831;BME280;45711;50.108;13.712;2023-01-20T06:47:05;97407.72;;;-1.57;89.74
59831;BME280;45711;50.108;13.712;2023-01-20T06:49:31;97406.09;;;-1.58;89.76
59831;BME280;45711;50.108;13.712;2023-01-20T06:51:57;97404.72;;;-1.61;90.19
59831;BME280;45711;50.108;13.712;2023-01-20T06:54:25;97403.06;;;-1.55;89.33
59831;BME280;45711;50.108;13.712;2023-01-20T06:56:53;97406.00;;;-1.45;90.15
59831;BME280;45711;50.108;13.712;2023-01-20T06:59:18;97410.06;;;-1.49;90.10
59831;BME280;45711;50.108;13.712;2023-01-20T07:01:45;97408.25;;;-1.48;89.53
59831;BME280;45711;50.108;13.712;2023-01-20T07:04:19;97419.56;;;-1.48;89.38
59831;BME280;45711;50.108;13.712;2023-01-20T07:06:50;97423.34;;;-1.44;89.62
59831;BME280;45711;50.108;13.712;2023-01-20T07:09:15;97422.94;;;-1.41;89.53
59831;BME280;45711;50.108;13.712;2023-01-20T07:11:47;97425.56;;;-1.41;89.81
59831;BME280;45711;50.108;13.712;2023-01-20T07:14:16;97433.28;;;-1.46;88.60
59831;BME280;45711;50.108;13.712;2023-01-20T07:16:42;97435.91;;;-1.46;87.51
59831;BME280;45711;50.108;13.712;2023-01-20T07:19:07;97437.88;;;-1.41;86.87
59831;BME280;45711;50.108;13.712;2023-01-20T07:21:33;97452.56;;;-1.34;88.41
59831;BME280;45711;50.108;13.712;2023-01-20T07:23:59;97450.47;;;-1.50;89.39
59831;BME280;45711;50.108;13.712;2023-01-20T07:26:31;97457.28;;;-1.42;89.49
59831;BME280;45711;50.108;13.712;2023-01-20T07:29:29;97461.25;;;-1.33;89.46
59831;BME280;45711;50.108;13.712;2023-01-20T07:31:55;97455.22;;;-1.40;89.82
59831;BME280;45711;50.108;13.712;2023-01-20T07:34:20;97466.75;;;-1.41;90.17
59831;BME280;45711;50.108;13.712;2023-01-20T07:36:46;97469.78;;;-1.44;90.55
59831;BME280;45711;50.108;13.712;2023-01-20T07:39:12;97466.72;;;-1.35;90.68
59831;BME280;45711;50.108;13.712;2023-01-20T07:41:39;97476.38;;;-1.29;90.72
59831;BME280;45711;50.108;13.712;2023-01-20T07:44:06;97474.53;;;-1.28;90.19
59831;BME280;45711;50.108;13.712;2023-01-20T07:46:33;97482.03;;;-1.32;89.18
59831;BME280;45711;50.108;13.712;2023-01-20T07:48:59;97486.06;;;-1.29;89.42
59831;BME280;45711;50.108;13.712;2023-01-20T07:51:40;97482.63;;;-1.30;89.28
59831;BME280;45711;50.108;13.712;2023-01-20T07:54:10;97492.50;;;-1.25;88.94
59831;BME280;45711;50.108;13.712;2023-01-20T07:56:43;97502.44;;;-1.34;88.47
59831;BME280;45711;50.108;13.712;2023-01-20T07:59:12;97494.81;;;-1.42;89.42
59831;BME280;45711;50.108;13.712;2023-01-20T08:01:43;97502.44;;;-1.34;89.84
59831;BME280;45711;50.108;13.712;2023-01-20T08:04:09;97506.91;;;-1.34;89.58
59831;BME280;45711;50.108;13.712;2023-01-20T08:06:35;97518.59;;;-1.30;90.23
59831;BME280;45711;50.108;13.712;2023-01-20T08:09:00;97523.44;;;-1.34;90.78
59831;BME280;45711;50.108;13.712;2023-01-20T08:11:29;97526.72;;;-1.38;89.78
59831;BME280;45711;50.108;13.712;2023-01-20T08:13:58;97531.91;;;-1.32;90.67
59831;BME280;45711;50.108;13.712;2023-01-20T08:16:28;97533.72;;;-1.32;89.44
59831;BME280;45711;50.108;13.712;2023-01-20T08:18:55;97534.53;;;-1.32;89.74
59831;BME280;45711;50.108;13.712;2023-01-20T08:21:25;97530.31;;;-1.33;89.43
59831;BME280;45711;50.108;13.712;2023-01-20T08:23:55;97544.91;;;-1.43;91.66
59831;BME280;45711;50.108;13.712;2023-01-20T08:26:21;97549.78;;;-1.47;93.85
59831;BME280;45711;50.108;13.712;2023-01-20T08:28:49;97555.03;;;-1.47;94.33
59831;BME280;45711;50.108;13.712;2023-01-20T08:31:16;97541.94;;;-1.54;94.83
59831;BME280;45711;50.108;13.712;2023-01-20T08:33:43;97549.56;;;-1.45;94.37
59831;BME280;45711;50.108;13.712;2023-01-20T08:36:16;97550.59;;;-1.53;93.93
59831;BME280;45711;50.108;13.712;2023-01-20T08:38:46;97553.91;;;-1.64;94.59
59831;BME280;45711;50.108;13.712;2023-01-20T08:41:14;97555.59;;;-1.45;94.73
59831;BME280;45711;50.108;13.712;2023-01-20T08:43:42;97551.84;;;-1.62;95.05
59831;BME280;45711;50.108;13.712;2023-01-20T08:46:13;97566.34;;;-1.53;95.49
59831;BME280;45711;50.108;13.712;2023-01-20T08:48:40;97557.72;;;-1.60;95.75
59831;BME280;45711;50.108;13.712;2023-01-20T08:51:08;97562.91;;;-1.54;95.95
59831;BME280;45711;50.108;13.712;2023-01-20T08:53:35;97563.66;;;-1.40;96.12
59831;BME280;45711;50.108;13.712;2023-01-20T08:56:04;97558.69;;;-1.48;95.06
59831;BME280;45711;50.108;13.712;2023-01-20T08:58:33;97563.94;;;-1.48;95.71
59831;BME280;45711;50.108;13.712;2023-01-20T09:01:09;97565.72;;;-1.48;95.86
59831;BME280;45711;50.108;13.712;2023-01-20T09:03:35;97569.16;;;-1.48;95.65
59831;BME280;45711;50.108;13.712;2023-01-20T09:06:06;97571.59;;;-1.53;95.68
59831;BME280;45711;50.108;13.712;2023-01-20T09:08:38;97568.34;;;-1.48;96.21
59831;BME280;45711;50.108;13.712;2023-01-20T09:11:13;97565.72;;;-1.48;95.42
59831;BME280;45711;50.108;13.712;2023-01-20T09:14:00;97570.16;;;-1.49;95.77
59831;BME280;45711;50.108;13.712;2023-01-20T09:16:26;97576.03;;;-1.47;96.00
59831;BME280;45711;50.108;13.712;2023-01-20T09:18:51;97573.59;;;-1.48;95.93
59831;BME280;45711;50.108;13.712;2023-01-20T09:21:17;97576.41;;;-1.43;95.60
59831;BME280;45711;50.108;13.712;2023-01-20T09:23:44;97575.16;;;-1.34;96.42
59831;BME280;45711;50.108;13.712;2023-01-20T09:26:12;97579.25;;;-1.13;96.27
59831;BME280;45711;50.108;13.712;2023-01-20T09:28:38;97587.91;;;-1.06;95.90
59831;BME280;45711;50.108;13.712;2023-01-20T09:31:05;97584.34;;;-0.87;94.65
59831;BME280;45711;50.108;13.712;2023-01-20T09:33:33;97593.28;;;-0.94;94.69
59831;BME280;45711;50.108;13.712;2023-01-20T09:36:00;97591.13;;;-1.04;95.47
59831;BME280;45711;50.108;13.712;2023-01-20T09:38:26;97602.47;;;-1.10;95.58
59831;BME280;45711;50.108;13.712;2023-01-20T09:41:18;97596.66;;;-1.19;96.63
59831;BME280;45711;50.108;13.712;2023-01-20T09:44:21;97594.44;;;-1.15;96.73
59831;BME280;45711;50.108;13.712;2023-01-20T09:47:03;97604.06;;;-1.09;96.96
59831;BME280;45711;50.108;13.712;2023-01-20T09:49:45;97596.63;;;-1.12;96.87
59831;BME280;45711;50.108;13.712;2023-01-20T09:52:36;97600.41;;;-1.02;97.70
59831;BME280;45711;50.108;13.712;2023-01-20T09:55:25;97597.59;;;-1.07;97.52
59831;BME280;45711;50.108;13.712;2023-01-20T09:58:12;97590.69;;;-1.01;97.33
59831;BME280;45711;50.108;13.712;2023-01-20T10:00:45;97601.75;;;-0.92;97.22
59831;BME280;45711;50.108;13.712;2023-01-20T10:03:28;97600.53;;;-0.90;96.96
59831;BME280;45711;50.108;13.712;2023-01-20T10:06:10;97594.09;;;-0.94;97.29
59831;BME280;45711;50.108;13.712;2023-01-20T10:08:47;97597.00;;;-0.77;96.39
59831;BME280;45711;50.108;13.712;2023-01-20T10:11:17;97605.56;;;-0.88;96.21
59831;BME280;45711;50.108;13.712;2023-01-20T10:13:54;97603.06;;;-0.77;96.28
59831;BME280;45711;50.108;13.712;2023-01-20T10:16:32;97606.09;;;-0.80;96.48
59831;BME280;45711;50.108;13.712;2023-01-20T10:19:03;97610.19;;;-0.84;96.11
59831;BME280;45711;50.108;13.712;2023-01-20T10:21:36;97607.25;;;-0.69;95.94
59831;BME280;45711;50.108;13.712;2023-01-20T10:24:13;97613.16;;;-0.73;95.84
59831;BME280;45711;50.108;13.712;2023-01-20T10:26:44;97613.19;;;-0.80;96.21
59831;BME280;45711;50.108;13.712;2023-01-20T10:29:25;97611.22;;;-0.85;96.55
59831;BME280;45711;50.108;13.712;2023-01-20T10:31:58;97610.53;;;-0.73;95.78
59831;BME280;45711;50.108;13.712;2023-01-20T10:34:27;97611.66;;;-0.63;95.87
59831;BME280;45711;50.108;13.712;2023-01-20T10:37:02;97613.41;;;-0.57;95.91
59831;BME280;45711;50.108;13.712;2023-01-20T10:39:39;97619.31;;;-0.61;95.92
59831;BME280;45711;50.108;13.712;2023-01-20T10:42:13;97612.78;;;-0.52;96.10
59831;BME280;45711;50.108;13.712;2023-01-20T10:44:48;97611.31;;;-0.48;95.77
59831;BME280;45711;50.108;13.712;2023-01-20T10:47:43;97615.03;;;-0.56;95.81
59831;BME280;45711;50.108;13.712;2023-01-20T10:50:38;97624.28;;;-0.46;95.92
59831;BME280;45711;50.108;13.712;2023-01-20T10:53:31;97630.59;;;-0.29;95.25
59831;BME280;45711;50.108;13.712;2023-01-20T10:59:02;97636.00;;;-0.24;95.11
59831;BME280;45711;50.108;13.712;2023-01-20T11:01:37;97625.75;;;-0.32;95.16
59831;BME280;45711;50.108;13.712;2023-01-20T11:04:03;97637.63;;;-0.23;95.10
59831;BME280;45711;50.108;13.712;2023-01-20T11:06:29;97641.69;;;-0.27;95.46
59831;BME280;45711;50.108;13.712;2023-01-20T11:08:55;97635.13;;;-0.18;94.69
59831;BME280;45711;50.108;13.712;2023-01-20T11:11:22;97628.47;;;-0.39;95.03
59831;BME280;45711;50.108;13.712;2023-01-20T11:13:48;97636.88;;;-0.30;95.02
59831;BME280;45711;50.108;13.712;2023-01-20T11:16:18;97642.50;;;-0.27;95.96
59831;BME280;45711;50.108;13.712;2023-01-20T11:18:56;97639.53;;;-0.12;94.66
59831;BME280;45711;50.108;13.712;2023-01-20T11:21:22;97643.41;;;-0.39;94.88
59831;BME280;45711;50.108;13.712;2023-01-20T11:23:50;97637.09;;;-0.32;95.71
59831;BME280;45711;50.108;13.712;2023-01-20T11:26:23;97642.38;;;-0.13;94.94
59831;BME280;45711;50.108;13.712;2023-01-20T11:28:52;97637.72;;;-0.11;94.52
59831;BME280;45711;50.108;13.712;2023-01-20T11:31:19;97641.22;;;-0.17;93.58
59831;BME280;45711;50.108;13.712;2023-01-20T11:33:58;97644.13;;;-0.26;94.09
59831;BME280;45711;50.108;13.712;2023-01-20T11:36:24;97644.84;;;0.07;94.45
59831;BME280;45711;50.108;13.712;2023-01-20T11:38:52;97644.38;;;-0.09;94.31
59831;BME280;45711;50.108;13.712;2023-01-20T11:41:20;97647.00;;;-0.09;93.56
59831;BME280;45711;50.108;13.712;2023-01-20T11:43:47;97649.28;;;-0.12;94.08
59831;BME280;45711;50.108;13.712;2023-01-20T11:46:25;97654.91;;;-0.09;94.70
59831;BME280;45711;50.108;13.712;2023-01-20T11:49:13;97659.19;;;-0.14;94.46
59831;BME280;45711;50.108;13.712;2023-01-20T11:51:48;97650.19;;;-0.25;94.39
59831;BME280;45711;50.108;13.712;2023-01-20T11:54:16;97654.84;;;-0.27;95.03
59831;BME280;45711;50.108;13.712;2023-01-20T11:56:44;97666.66;;;-0.11;95.13
59831;BME280;45711;50.108;13.712;2023-01-20T11:59:19;97651.28;;;-0.14;94.56
59831;BME280;45711;50.108;13.712;2023-01-20T12:01:56;97653.59;;;0.01;93.96
59831;BME280;45711;50.108;13.712;2023-01-20T12:07:27;97660.19;;;0.10;94.36
59831;BME280;45711;50.108;13.712;2023-01-20T12:09:59;97659.38;;;0.09;93.68
59831;BME280;45711;50.108;13.712;2023-01-20T12:12:33;97673.38;;;0.28;93.29
59831;BME280;45711;50.108;13.712;2023-01-20T12:15:03;97667.34;;;0.21;93.40
59831;BME280;45711;50.108;13.712;2023-01-20T12:17:39;97662.16;;;0.14;93.12
59831;BME280;45711;50.108;13.712;2023-01-20T12:20:10;97663.94;;;0.39;93.25
59831;BME280;45711;50.108;13.712;2023-01-20T12:22:46;97658.00;;;0.07;93.14
59831;BME280;45711;50.108;13.712;2023-01-20T12:25:18;97664.06;;;0.25;93.84
59831;BME280;45711;50.108;13.712;2023-01-20T12:27:52;97670.75;;;0.03;93.52
59831;BME280;45711;50.108;13.712;2023-01-20T12:30:40;97663.63;;;0.10;93.97
59831;BME280;45711;50.108;13.712;2023-01-20T12:33:21;97669.78;;;0.22;93.20
59831;BME280;45711;50.108;13.712;2023-01-20T12:36:05;97672.03;;;0.19;93.43
59831;BME280;45711;50.108;13.712;2023-01-20T12:38:40;97674.97;;;0.47;92.35
59831;BME280;45711;50.108;13.712;2023-01-20T12:41:16;97676.56;;;0.30;93.75
59831;BME280;45711;50.108;13.712;2023-01-20T12:43:54;97676.50;;;0.37;93.59
59831;BME280;45711;50.108;13.712;2023-01-20T12:46:34;97675.34;;;0.33;93.34
59831;BME280;45711;50.108;13.712;2023-01-20T12:49:29;97676.00;;;0.46;92.60
59831;BME280;45711;50.108;13.712;2023-01-20T12:52:09;97679.84;;;0.25;94.08
59831;BME280;45711;50.108;13.712;2023-01-20T12:54:55;97671.44;;;0.17;94.00
59831;BME280;45711;50.108;13.712;2023-01-20T12:57:39;97683.66;;;0.30;95.00
59831;BME280;45711;50.108;13.712;2023-01-20T13:00:27;97677.31;;;0.37;94.75
59831;BME280;45711;50.108;13.712;2023-01-20T13:09:16;97689.81;;;0.42;94.59
59831;BME280;45711;50.108;13.712;2023-01-20T13:11:58;97692.31;;;0.37;94.20
59831;BME280;45711;50.108;13.712;2023-01-20T13:14:30;97680.50;;;0.21;94.46
59831;BME280;45711;50.108;13.712;2023-01-20T13:17:13;97689.31;;;0.52;92.74
59831;BME280;45711;50.108;13.712;2023-01-20T13:19:45;97686.84;;;0.75;91.52
59831;BME280;45711;50.108;13.712;2023-01-20T13:22:17;97679.50;;;0.77;92.68
59831;BME280;45711;50.108;13.712;2023-01-20T13:24:49;97689.03;;;0.60;92.24